sensor_id;sensor_type;location;lat;lon;timestamp;temperature;humidity
7738;DHT22;29398;45.328;5.558;2023-02-11T00:00:38;3.30;81.20
7738;DHT22;29398;45.328;5.558;2023-02-11T00:01:41;3.30;81.40
7738;DHT22;29398;45.328;5.558;2023-02-11T00:02:42;3.30;81.60
7738;DHT22;29398;45.328;5.558;2023-02-11T00:03:45;3.30;81.60
7738;DHT22;29398;45.328;5.558;2023-02-11T00:04:46;3.30;81.70
7738;DHT22;29398;45.328;5.558;2023-02-11T00:05:56;3.30;82.20
7738;DHT22;29398;45.328;5.558;2023-02-11T00:06:59;3.30;82.70
7738;DHT22;29398;45.328;5.558;2023-02-11T00:08:01;3.20;83.00
7738;DHT22;29398;45.328;5.558;2023-02-11T00:09:04;3.20;83.10
7738;DHT22;29398;45.328;5.558;2023-02-11T00:10:07;3.20;83.40
7738;DHT22;29398;45.328;5.558;2023-02-11T00:11:11;3.20;83.40
7738;DHT22;29398;45.328;5.558;2023-02-11T00:12:14;3.20;83.60
7738;DHT22;29398;45.328;5.558;2023-02-11T00:13:15;3.20;83.60
7738;DHT22;29398;45.328;5.558;2023-02-11T00:14:17;3.10;83.40
7738;DHT22;29398;45.328;5.558;2023-02-11T00:15:18;3.10;83.30
7738;DHT22;29398;45.328;5.558;2023-02-11T00:16:21;3.10;83.30
7738;DHT22;29398;45.328;5.558;2023-02-11T00:17:23;3.10;83.20
7738;DHT22;29398;45.328;5.558;2023-02-11T00:18:25;3.10;83.00
7738;DHT22;29398;45.328;5.558;2023-02-11T00:19:27;3.10;82.90
7738;DHT22;29398;45.328;5.558;2023-02-11T00:20:29;3.10;82.90
7738;DHT22;29398;45.328;5.558;2023-02-11T00:21:31;3.10;83.00
7738;DHT22;29398;45.328;5.558;2023-02-11T00:22:33;3.10;83.10
7738;DHT22;29398;45.328;5.558;2023-02-11T00:23:34;3.10;83.10
7738;DHT22;29398;45.328;5.558;2023-02-11T00:24:37;3.10;83.00
7738;DHT22;29398;45.328;5.558;2023-02-11T00:25:39;3.10;83.10
7738;DHT22;29398;45.328;5.558;2023-02-11T00:26:41;3.10;83.00
7738;DHT22;29398;45.328;5.558;2023-02-11T00:27:44;4.80;84.00
7738;DHT22;29398;45.328;5.558;2023-02-11T00:28:48;3.00;83.10
7738;DHT22;29398;45.328;5.558;2023-02-11T00:29:51;3.00;83.00
7738;DHT22;29398;45.328;5.558;2023-02-11T00:30:55;3.00;83.10
7738;DHT22;29398;45.328;5.558;2023-02-11T00:31:57;3.00;83.10
7738;DHT22;29398;45.328;5.558;2023-02-11T00:33:00;3.00;83.20
7738;DHT22;29398;45.328;5.558;2023-02-11T00:34:02;3.00;83.10
7738;DHT22;29398;45.328;5.558;2023-02-11T00:35:04;3.00;83.00
7738;DHT22;29398;45.328;5.558;2023-02-11T00:36:08;2.90;83.00
7738;DHT22;29398;45.328;5.558;2023-02-11T00:37:09;2.90;83.60
7738;DHT22;29398;45.328;5.558;2023-02-11T00:38:11;2.90;83.50
7738;DHT22;29398;45.328;5.558;2023-02-11T00:39:13;2.90;83.40
7738;DHT22;29398;45.328;5.558;2023-02-11T00:40:15;2.90;83.50
7738;DHT22;29398;45.328;5.558;2023-02-11T00:41:17;2.80;83.40
7738;DHT22;29398;45.328;5.558;2023-02-11T00:42:19;2.80;83.60
7738;DHT22;29398;45.328;5.558;2023-02-11T00:43:20;2.80;84.40
7738;DHT22;29398;45.328;5.558;2023-02-11T00:44:22;2.70;84.80
7738;DHT22;29398;45.328;5.558;2023-02-11T00:45:23;2.70;84.80
7738;DHT22;29398;45.328;5.558;2023-02-11T00:46:25;2.70;84.70
7738;DHT22;29398;45.328;5.558;2023-02-11T00:47:27;2.70;84.40
7738;DHT22;29398;45.328;5.558;2023-02-11T00:48:30;2.60;84.80
7738;DHT22;29398;45.328;5.558;2023-02-11T00:49:31;2.60;86.00
7738;DHT22;29398;45.328;5.558;2023-02-11T00:50:34;2.60;85.30
7738;DHT22;29398;45.328;5.558;2023-02-11T00:51:35;2.50;85.70
7738;DHT22;29398;45.328;5.558;2023-02-11T00:52:37;2.50;85.70
7738;DHT22;29398;45.328;5.558;2023-02-11T00:53:39;2.50;85.40
7738;DHT22;29398;45.328;5.558;2023-02-11T00:54:41;2.50;85.30
7738;DHT22;29398;45.328;5.558;2023-02-11T00:55:42;2.50;85.30
7738;DHT22;29398;45.328;5.558;2023-02-11T00:56:44;2.50;85.70
7738;DHT22;29398;45.328;5.558;2023-02-11T00:57:45;2.50;85.60
7738;DHT22;29398;45.328;5.558;2023-02-11T00:58:50;2.50;85.60
7738;DHT22;29398;45.328;5.558;2023-02-11T00:59:51;2.50;85.60
7738;DHT22;29398;45.328;5.558;2023-02-11T01:00:53;2.50;85.40
7738;DHT22;29398;45.328;5.558;2023-02-11T01:01:55;2.50;85.10
7738;DHT22;29398;45.328;5.558;2023-02-11T01:02:57;2.50;85.10
7738;DHT22;29398;45.328;5.558;2023-02-11T01:03:59;2.50;85.50
7738;DHT22;29398;45.328;5.558;2023-02-11T01:05:02;2.50;85.30
7738;DHT22;29398;45.328;5.558;2023-02-11T01:06:03;2.50;85.20
7738;DHT22;29398;45.328;5.558;2023-02-11T01:07:06;2.50;85.30
7738;DHT22;29398;45.328;5.558;2023-02-11T01:08:07;2.40;85.20
7738;DHT22;29398;45.328;5.558;2023-02-11T01:09:09;2.50;85.10
7738;DHT22;29398;45.328;5.558;2023-02-11T01:10:10;2.50;85.10
7738;DHT22;29398;45.328;5.558;2023-02-11T01:11:14;2.50;84.90
7738;DHT22;29398;45.328;5.558;2023-02-11T01:12:18;2.50;84.60
7738;DHT22;29398;45.328;5.558;2023-02-11T01:13:21;2.60;84.60
7738;DHT22;29398;45.328;5.558;2023-02-11T01:14:22;2.60;84.40
7738;DHT22;29398;45.328;5.558;2023-02-11T01:15:25;2.60;84.10
7738;DHT22;29398;45.328;5.558;2023-02-11T01:16:26;2.60;83.70
7738;DHT22;29398;45.328;5.558;2023-02-11T01:17:29;2.60;83.70
7738;DHT22;29398;45.328;5.558;2023-02-11T01:18:30;2.60;83.60
7738;DHT22;29398;45.328;5.558;2023-02-11T01:19:33;2.60;83.90
7738;DHT22;29398;45.328;5.558;2023-02-11T01:20:36;2.60;83.60
7738;DHT22;29398;45.328;5.558;2023-02-11T01:21:38;2.60;83.50
7738;DHT22;29398;45.328;5.558;2023-02-11T01:22:39;2.60;83.50
7738;DHT22;29398;45.328;5.558;2023-02-11T01:23:42;2.60;83.40
7738;DHT22;29398;45.328;5.558;2023-02-11T01:24:45;2.60;83.30
7738;DHT22;29398;45.328;5.558;2023-02-11T01:25:48;2.60;83.40
7738;DHT22;29398;45.328;5.558;2023-02-11T01:26:49;2.60;83.70
7738;DHT22;29398;45.328;5.558;2023-02-11T01:27:51;2.60;83.40
7738;DHT22;29398;45.328;5.558;2023-02-11T01:28:52;2.70;83.60
7738;DHT22;29398;45.328;5.558;2023-02-11T01:29:54;2.60;83.30
7738;DHT22;29398;45.328;5.558;2023-02-11T01:30:56;2.60;83.20
7738;DHT22;29398;45.328;5.558;2023-02-11T01:31:58;2.60;83.00
7738;DHT22;29398;45.328;5.558;2023-02-11T01:33:00;2.60;83.10
7738;DHT22;29398;45.328;5.558;2023-02-11T01:34:02;2.60;83.20
7738;DHT22;29398;45.328;5.558;2023-02-11T01:35:05;2.60;83.40
7738;DHT22;29398;45.328;5.558;2023-02-11T01:36:10;2.60;82.70
7738;DHT22;29398;45.328;5.558;2023-02-11T01:37:11;2.50;83.00
7738;DHT22;29398;45.328;5.558;2023-02-11T01:38:15;2.50;82.70
7738;DHT22;29398;45.328;5.558;2023-02-11T01:39:16;2.60;82.80
7738;DHT22;29398;45.328;5.558;2023-02-11T01:40:20;2.60;83.10
7738;DHT22;29398;45.328;5.558;2023-02-11T01:41:21;2.60;83.10
7738;DHT22;29398;45.328;5.558;2023-02-11T01:42:25;2.50;82.90
7738;DHT22;29398;45.328;5.558;2023-02-11T01:43:29;2.50;83.10
7738;DHT22;29398;45.328;5.558;2023-02-11T01:44:34;2.50;83.50
7738;DHT22;29398;45.328;5.558;2023-02-11T01:46:01;2.50;83.30
7738;DHT22;29398;45.328;5.558;2023-02-11T01:47:04;2.40;83.30
7738;DHT22;29398;45.328;5.558;2023-02-11T01:48:07;2.40;83.40
7738;DHT22;29398;45.328;5.558;2023-02-11T01:49:10;2.40;83.60
7738;DHT22;29398;45.328;5.558;2023-02-11T01:50:14;2.40;83.60
7738;DHT22;29398;45.328;5.558;2023-02-11T01:51:20;2.40;84.20
7738;DHT22;29398;45.328;5.558;2023-02-11T01:52:24;2.50;85.30
7738;DHT22;29398;45.328;5.558;2023-02-11T01:53:28;2.50;85.70
7738;DHT22;29398;45.328;5.558;2023-02-11T01:54:50;2.50;86.20
7738;DHT22;29398;45.328;5.558;2023-02-11T01:56:10;2.50;86.50
7738;DHT22;29398;45.328;5.558;2023-02-11T01:57:33;2.60;86.00
7738;DHT22;29398;45.328;5.558;2023-02-11T01:58:37;2.70;85.70
7738;DHT22;29398;45.328;5.558;2023-02-11T01:59:44;2.60;86.00
7738;DHT22;29398;45.328;5.558;2023-02-11T02:00:47;2.60;86.80
7738;DHT22;29398;45.328;5.558;2023-02-11T02:01:54;2.60;86.40
7738;DHT22;29398;45.328;5.558;2023-02-11T02:03:01;2.50;86.10
7738;DHT22;29398;45.328;5.558;2023-02-11T02:04:04;2.40;84.10
7738;DHT22;29398;45.328;5.558;2023-02-11T02:05:14;2.60;87.00
7738;DHT22;29398;45.328;5.558;2023-02-11T02:06:25;2.40;86.40
7738;DHT22;29398;45.328;5.558;2023-02-11T02:07:33;2.40;87.50
7738;DHT22;29398;45.328;5.558;2023-02-11T02:08:39;2.50;87.90
7738;DHT22;29398;45.328;5.558;2023-02-11T02:09:45;2.40;87.70
7738;DHT22;29398;45.328;5.558;2023-02-11T02:10:52;2.40;86.90
7738;DHT22;29398;45.328;5.558;2023-02-11T02:11:56;2.40;87.60
7738;DHT22;29398;45.328;5.558;2023-02-11T02:12:59;2.40;87.30
7738;DHT22;29398;45.328;5.558;2023-02-11T02:14:00;2.40;87.90
7738;DHT22;29398;45.328;5.558;2023-02-11T02:15:20;2.40;87.40
7738;DHT22;29398;45.328;5.558;2023-02-11T02:16:27;2.30;87.10
7738;DHT22;29398;45.328;5.558;2023-02-11T02:17:39;2.40;87.60
7738;DHT22;29398;45.328;5.558;2023-02-11T02:18:50;2.30;87.10
7738;DHT22;29398;45.328;5.558;2023-02-11T02:20:26;2.30;87.90
7738;DHT22;29398;45.328;5.558;2023-02-11T02:21:56;2.20;88.90
7738;DHT22;29398;45.328;5.558;2023-02-11T02:24:56;2.10;85.60
7738;DHT22;29398;45.328;5.558;2023-02-11T02:26:45;2.20;88.30
7738;DHT22;29398;45.328;5.558;2023-02-11T02:27:54;2.20;87.20
7738;DHT22;29398;45.328;5.558;2023-02-11T02:29:30;2.20;88.50
7738;DHT22;29398;45.328;5.558;2023-02-11T02:30:52;2.30;88.80
7738;DHT22;29398;45.328;5.558;2023-02-11T02:33:46;2.30;87.90
7738;DHT22;29398;45.328;5.558;2023-02-11T02:34:54;2.40;88.60
7738;DHT22;29398;45.328;5.558;2023-02-11T02:36:05;2.40;88.20
7738;DHT22;29398;45.328;5.558;2023-02-11T02:37:09;2.40;88.50
7738;DHT22;29398;45.328;5.558;2023-02-11T02:38:20;2.30;87.50
7738;DHT22;29398;45.328;5.558;2023-02-11T02:39:26;2.20;85.20
7738;DHT22;29398;45.328;5.558;2023-02-11T02:40:32;2.10;84.20
7738;DHT22;29398;45.328;5.558;2023-02-11T02:41:36;2.20;85.30
7738;DHT22;29398;45.328;5.558;2023-02-11T02:42:40;2.10;84.80
7738;DHT22;29398;45.328;5.558;2023-02-11T02:43:43;2.30;88.00
7738;DHT22;29398;45.328;5.558;2023-02-11T02:44:47;2.30;89.10
7738;DHT22;29398;45.328;5.558;2023-02-11T02:45:49;2.30;89.30
7738;DHT22;29398;45.328;5.558;2023-02-11T02:46:51;2.30;90.10
7738;DHT22;29398;45.328;5.558;2023-02-11T02:47:52;2.10;85.40
7738;DHT22;29398;45.328;5.558;2023-02-11T02:48:56;2.20;89.80
7738;DHT22;29398;45.328;5.558;2023-02-11T02:49:58;2.20;87.50
7738;DHT22;29398;45.328;5.558;2023-02-11T02:51:08;2.10;89.60
7738;DHT22;29398;45.328;5.558;2023-02-11T02:52:22;2.00;90.60
7738;DHT22;29398;45.328;5.558;2023-02-11T02:53:34;1.90;90.70
7738;DHT22;29398;45.328;5.558;2023-02-11T02:55:10;2.00;90.90
7738;DHT22;29398;45.328;5.558;2023-02-11T02:56:21;2.00;90.90
7738;DHT22;29398;45.328;5.558;2023-02-11T02:57:29;2.00;90.20
7738;DHT22;29398;45.328;5.558;2023-02-11T02:58:54;2.00;90.60
7738;DHT22;29398;45.328;5.558;2023-02-11T03:00:17;2.10;90.70
7738;DHT22;29398;45.328;5.558;2023-02-11T03:01:29;1.90;90.60
7738;DHT22;29398;45.328;5.558;2023-02-11T03:02:37;1.90;90.60
7738;DHT22;29398;45.328;5.558;2023-02-11T03:03:47;2.00;90.60
7738;DHT22;29398;45.328;5.558;2023-02-11T03:04:58;2.00;90.60
7738;DHT22;29398;45.328;5.558;2023-02-11T03:06:07;2.00;90.50
7738;DHT22;29398;45.328;5.558;2023-02-11T03:07:15;2.00;90.40
7738;DHT22;29398;45.328;5.558;2023-02-11T03:08:24;1.90;90.20
7738;DHT22;29398;45.328;5.558;2023-02-11T03:09:29;2.00;90.20
7738;DHT22;29398;45.328;5.558;2023-02-11T03:10:36;2.10;90.10
7738;DHT22;29398;45.328;5.558;2023-02-11T03:11:39;2.10;90.10
7738;DHT22;29398;45.328;5.558;2023-02-11T03:12:42;1.90;85.30
7738;DHT22;29398;45.328;5.558;2023-02-11T03:13:45;2.00;85.60
7738;DHT22;29398;45.328;5.558;2023-02-11T03:14:49;2.10;86.20
7738;DHT22;29398;45.328;5.558;2023-02-11T03:15:53;2.10;85.40
7738;DHT22;29398;45.328;5.558;2023-02-11T03:16:57;2.10;85.30
7738;DHT22;29398;45.328;5.558;2023-02-11T03:18:01;2.10;85.30
7738;DHT22;29398;45.328;5.558;2023-02-11T03:19:09;2.10;85.50
7738;DHT22;29398;45.328;5.558;2023-02-11T03:20:17;2.20;86.70
7738;DHT22;29398;45.328;5.558;2023-02-11T03:21:19;2.10;90.10
7738;DHT22;29398;45.328;5.558;2023-02-11T03:22:25;2.10;90.00
7738;DHT22;29398;45.328;5.558;2023-02-11T03:23:29;2.20;90.90
7738;DHT22;29398;45.328;5.558;2023-02-11T03:24:36;2.10;87.20
7738;DHT22;29398;45.328;5.558;2023-02-11T03:25:43;2.20;88.30
7738;DHT22;29398;45.328;5.558;2023-02-11T03:26:48;2.10;87.10
7738;DHT22;29398;45.328;5.558;2023-02-11T03:27:57;2.10;89.30
7738;DHT22;29398;45.328;5.558;2023-02-11T03:29:03;2.30;91.10
7738;DHT22;29398;45.328;5.558;2023-02-11T03:30:12;2.00;85.00
7738;DHT22;29398;45.328;5.558;2023-02-11T03:31:19;2.00;85.20
7738;DHT22;29398;45.328;5.558;2023-02-11T03:32:25;2.00;85.20
7738;DHT22;29398;45.328;5.558;2023-02-11T03:33:31;2.00;85.20
7738;DHT22;29398;45.328;5.558;2023-02-11T03:34:39;2.00;84.70
7738;DHT22;29398;45.328;5.558;2023-02-11T03:35:48;2.10;84.60
7738;DHT22;29398;45.328;5.558;2023-02-11T03:36:54;2.10;84.60
7738;DHT22;29398;45.328;5.558;2023-02-11T03:37:59;2.10;84.60
7738;DHT22;29398;45.328;5.558;2023-02-11T03:39:04;2.10;84.40
7738;DHT22;29398;45.328;5.558;2023-02-11T03:40:08;2.10;84.30
7738;DHT22;29398;45.328;5.558;2023-02-11T03:41:12;2.10;84.20
7738;DHT22;29398;45.328;5.558;2023-02-11T03:42:15;2.10;84.00
7738;DHT22;29398;45.328;5.558;2023-02-11T03:43:20;2.10;83.90
7738;DHT22;29398;45.328;5.558;2023-02-11T03:44:25;2.10;84.20
7738;DHT22;29398;45.328;5.558;2023-02-11T03:45:30;2.00;83.80
7738;DHT22;29398;45.328;5.558;2023-02-11T03:46:35;2.10;84.00
7738;DHT22;29398;45.328;5.558;2023-02-11T03:47:40;2.10;84.20
7738;DHT22;29398;45.328;5.558;2023-02-11T03:48:46;2.00;83.90
7738;DHT22;29398;45.328;5.558;2023-02-11T03:49:51;2.10;83.90
7738;DHT22;29398;45.328;5.558;2023-02-11T03:50:55;2.10;83.90
7738;DHT22;29398;45.328;5.558;2023-02-11T03:52:00;2.00;83.70
7738;DHT22;29398;45.328;5.558;2023-02-11T03:53:02;2.00;83.60
7738;DHT22;29398;45.328;5.558;2023-02-11T03:54:08;2.00;83.80
7738;DHT22;29398;45.328;5.558;2023-02-11T03:55:14;2.00;83.80
7738;DHT22;29398;45.328;5.558;2023-02-11T03:56:20;2.00;83.70
7738;DHT22;29398;45.328;5.558;2023-02-11T03:57:23;2.00;83.90
7738;DHT22;29398;45.328;5.558;2023-02-11T03:58:25;2.00;84.00
7738;DHT22;29398;45.328;5.558;2023-02-11T03:59:26;2.00;84.10
7738;DHT22;29398;45.328;5.558;2023-02-11T04:00:29;2.00;83.90
7738;DHT22;29398;45.328;5.558;2023-02-11T04:01:31;2.00;83.60
7738;DHT22;29398;45.328;5.558;2023-02-11T04:02:35;2.00;83.90
7738;DHT22;29398;45.328;5.558;2023-02-11T04:03:36;1.90;83.90
7738;DHT22;29398;45.328;5.558;2023-02-11T04:04:38;2.00;83.90
7738;DHT22;29398;45.328;5.558;2023-02-11T04:05:42;2.00;83.90
7738;DHT22;29398;45.328;5.558;2023-02-11T04:06:45;2.00;83.90
7738;DHT22;29398;45.328;5.558;2023-02-11T04:07:47;2.00;83.70
7738;DHT22;29398;45.328;5.558;2023-02-11T04:08:49;2.10;83.30
7738;DHT22;29398;45.328;5.558;2023-02-11T04:09:50;2.00;83.60
7738;DHT22;29398;45.328;5.558;2023-02-11T04:10:52;2.10;84.10
7738;DHT22;29398;45.328;5.558;2023-02-11T04:11:53;2.10;84.00
7738;DHT22;29398;45.328;5.558;2023-02-11T04:12:55;2.10;83.30
7738;DHT22;29398;45.328;5.558;2023-02-11T04:13:57;2.00;82.80
7738;DHT22;29398;45.328;5.558;2023-02-11T04:14:59;2.10;83.20
7738;DHT22;29398;45.328;5.558;2023-02-11T04:16:00;2.00;83.70
7738;DHT22;29398;45.328;5.558;2023-02-11T04:17:03;2.00;83.10
7738;DHT22;29398;45.328;5.558;2023-02-11T04:18:04;2.00;82.90
7738;DHT22;29398;45.328;5.558;2023-02-11T04:19:06;2.00;82.80
7738;DHT22;29398;45.328;5.558;2023-02-11T04:20:08;2.00;83.10
7738;DHT22;29398;45.328;5.558;2023-02-11T04:21:11;1.90;82.80
7738;DHT22;29398;45.328;5.558;2023-02-11T04:22:13;1.90;82.40
7738;DHT22;29398;45.328;5.558;2023-02-11T04:23:15;2.00;83.20
7738;DHT22;29398;45.328;5.558;2023-02-11T04:24:17;2.00;83.10
7738;DHT22;29398;45.328;5.558;2023-02-11T04:25:19;2.00;83.20
7738;DHT22;29398;45.328;5.558;2023-02-11T04:26:20;2.00;83.00
7738;DHT22;29398;45.328;5.558;2023-02-11T04:27:22;2.00;82.90
7738;DHT22;29398;45.328;5.558;2023-02-11T04:28:23;2.00;82.90
7738;DHT22;29398;45.328;5.558;2023-02-11T04:29:26;2.00;82.70
7738;DHT22;29398;45.328;5.558;2023-02-11T04:30:27;2.00;82.60
7738;DHT22;29398;45.328;5.558;2023-02-11T04:31:29;2.00;82.70
7738;DHT22;29398;45.328;5.558;2023-02-11T04:32:31;2.00;82.60
7738;DHT22;29398;45.328;5.558;2023-02-11T04:33:33;2.10;82.60
7738;DHT22;29398;45.328;5.558;2023-02-11T04:34:34;2.00;82.60
7738;DHT22;29398;45.328;5.558;2023-02-11T04:35:36;2.00;82.80
7738;DHT22;29398;45.328;5.558;2023-02-11T04:36:37;2.10;82.80
7738;DHT22;29398;45.328;5.558;2023-02-11T04:37:40;2.10;82.60
7738;DHT22;29398;45.328;5.558;2023-02-11T04:38:41;2.10;82.70
7738;DHT22;29398;45.328;5.558;2023-02-11T04:39:43;2.00;83.00
7738;DHT22;29398;45.328;5.558;2023-02-11T04:40:44;2.00;82.90
7738;DHT22;29398;45.328;5.558;2023-02-11T04:41:47;2.00;82.80
7738;DHT22;29398;45.328;5.558;2023-02-11T04:42:48;2.00;83.00
7738;DHT22;29398;45.328;5.558;2023-02-11T04:43:50;2.00;83.20
7738;DHT22;29398;45.328;5.558;2023-02-11T04:44:51;2.00;83.30
7738;DHT22;29398;45.328;5.558;2023-02-11T04:45:55;1.90;83.30
7738;DHT22;29398;45.328;5.558;2023-02-11T04:46:57;1.90;83.60
7738;DHT22;29398;45.328;5.558;2023-02-11T04:48:01;1.90;83.70
7738;DHT22;29398;45.328;5.558;2023-02-11T04:49:02;1.90;83.90
7738;DHT22;29398;45.328;5.558;2023-02-11T04:50:05;1.80;84.00
7738;DHT22;29398;45.328;5.558;2023-02-11T04:51:06;1.90;84.00
7738;DHT22;29398;45.328;5.558;2023-02-11T04:52:08;1.80;84.00
7738;DHT22;29398;45.328;5.558;2023-02-11T04:53:11;1.80;84.00
7738;DHT22;29398;45.328;5.558;2023-02-11T04:54:13;1.90;83.80
7738;DHT22;29398;45.328;5.558;2023-02-11T04:55:14;1.90;83.90
7738;DHT22;29398;45.328;5.558;2023-02-11T04:56:17;1.90;83.90
7738;DHT22;29398;45.328;5.558;2023-02-11T04:57:18;1.90;84.00
7738;DHT22;29398;45.328;5.558;2023-02-11T04:58:20;1.90;83.80
7738;DHT22;29398;45.328;5.558;2023-02-11T04:59:21;1.90;83.80
7738;DHT22;29398;45.328;5.558;2023-02-11T05:00:23;1.80;83.60
7738;DHT22;29398;45.328;5.558;2023-02-11T05:01:24;1.80;83.90
7738;DHT22;29398;45.328;5.558;2023-02-11T05:02:26;1.80;83.70
7738;DHT22;29398;45.328;5.558;2023-02-11T05:03:28;1.90;83.90
7738;DHT22;29398;45.328;5.558;2023-02-11T05:04:30;1.80;84.00
7738;DHT22;29398;45.328;5.558;2023-02-11T05:05:31;1.80;83.90
7738;DHT22;29398;45.328;5.558;2023-02-11T05:06:33;1.90;83.80
7738;DHT22;29398;45.328;5.558;2023-02-11T05:07:34;1.80;83.70
7738;DHT22;29398;45.328;5.558;2023-02-11T05:08:37;1.80;84.10
7738;DHT22;29398;45.328;5.558;2023-02-11T05:09:39;1.80;83.90
7738;DHT22;29398;45.328;5.558;2023-02-11T05:10:45;1.80;83.70
7738;DHT22;29398;45.328;5.558;2023-02-11T05:11:46;1.80;83.60
7738;DHT22;29398;45.328;5.558;2023-02-11T05:12:49;1.80;83.40
7738;DHT22;29398;45.328;5.558;2023-02-11T05:13:50;1.80;83.50
7738;DHT22;29398;45.328;5.558;2023-02-11T05:14:53;1.80;82.90
7738;DHT22;29398;45.328;5.558;2023-02-11T05:15:54;1.80;83.50
7738;DHT22;29398;45.328;5.558;2023-02-11T05:16:56;1.80;83.60
7738;DHT22;29398;45.328;5.558;2023-02-11T05:17:57;1.80;83.70
7738;DHT22;29398;45.328;5.558;2023-02-11T05:18:59;1.70;83.70
7738;DHT22;29398;45.328;5.558;2023-02-11T05:20:00;1.70;84.10
7738;DHT22;29398;45.328;5.558;2023-02-11T05:21:05;1.70;84.20
7738;DHT22;29398;45.328;5.558;2023-02-11T05:22:06;1.70;84.20
7738;DHT22;29398;45.328;5.558;2023-02-11T05:23:09;1.70;84.20
7738;DHT22;29398;45.328;5.558;2023-02-11T05:24:11;1.70;84.00
7738;DHT22;29398;45.328;5.558;2023-02-11T05:25:13;1.70;84.00
7738;DHT22;29398;45.328;5.558;2023-02-11T05:26:14;1.70;84.20
7738;DHT22;29398;45.328;5.558;2023-02-11T05:27:16;1.70;84.40
7738;DHT22;29398;45.328;5.558;2023-02-11T05:28:18;1.70;84.50
7738;DHT22;29398;45.328;5.558;2023-02-11T05:29:20;1.70;84.50
7738;DHT22;29398;45.328;5.558;2023-02-11T05:30:21;1.70;84.50
7738;DHT22;29398;45.328;5.558;2023-02-11T05:31:23;1.60;84.40
7738;DHT22;29398;45.328;5.558;2023-02-11T05:32:24;1.60;85.00
7738;DHT22;29398;45.328;5.558;2023-02-11T05:33:26;1.60;85.00
7738;DHT22;29398;45.328;5.558;2023-02-11T05:34:28;1.60;85.50
7738;DHT22;29398;45.328;5.558;2023-02-11T05:35:30;1.50;85.20
7738;DHT22;29398;45.328;5.558;2023-02-11T05:36:32;1.60;85.50
7738;DHT22;29398;45.328;5.558;2023-02-11T05:37:34;1.50;85.20
7738;DHT22;29398;45.328;5.558;2023-02-11T05:38:36;1.60;85.50
7738;DHT22;29398;45.328;5.558;2023-02-11T05:39:39;1.50;85.20
7738;DHT22;29398;45.328;5.558;2023-02-11T05:40:41;1.50;84.80
7738;DHT22;29398;45.328;5.558;2023-02-11T05:41:43;1.50;85.40
7738;DHT22;29398;45.328;5.558;2023-02-11T05:42:44;1.50;85.30
7738;DHT22;29398;45.328;5.558;2023-02-11T05:43:47;1.50;85.40
7738;DHT22;29398;45.328;5.558;2023-02-11T05:44:49;1.50;85.60
7738;DHT22;29398;45.328;5.558;2023-02-11T05:45:51;1.50;85.30
7738;DHT22;29398;45.328;5.558;2023-02-11T05:46:52;1.50;85.20
7738;DHT22;29398;45.328;5.558;2023-02-11T05:47:55;1.50;85.10
7738;DHT22;29398;45.328;5.558;2023-02-11T05:48:56;1.50;85.10
7738;DHT22;29398;45.328;5.558;2023-02-11T05:49:58;1.50;84.90
7738;DHT22;29398;45.328;5.558;2023-02-11T05:50:59;1.50;85.30
7738;DHT22;29398;45.328;5.558;2023-02-11T05:52:02;1.50;85.10
7738;DHT22;29398;45.328;5.558;2023-02-11T05:53:03;1.50;85.30
7738;DHT22;29398;45.328;5.558;2023-02-11T05:54:06;1.50;85.70
7738;DHT22;29398;45.328;5.558;2023-02-11T05:55:09;1.50;85.50
7738;DHT22;29398;45.328;5.558;2023-02-11T05:56:11;1.50;85.50
7738;DHT22;29398;45.328;5.558;2023-02-11T05:57:12;1.50;85.70
7738;DHT22;29398;45.328;5.558;2023-02-11T05:58:15;1.40;85.60
7738;DHT22;29398;45.328;5.558;2023-02-11T05:59:16;1.40;85.80
7738;DHT22;29398;45.328;5.558;2023-02-11T06:00:18;1.40;85.80
7738;DHT22;29398;45.328;5.558;2023-02-11T06:01:19;1.40;85.90
7738;DHT22;29398;45.328;5.558;2023-02-11T06:02:21;1.40;85.80
7738;DHT22;29398;45.328;5.558;2023-02-11T06:03:22;1.40;86.10
7738;DHT22;29398;45.328;5.558;2023-02-11T06:04:25;1.40;86.10
7738;DHT22;29398;45.328;5.558;2023-02-11T06:05:26;1.40;86.00
7738;DHT22;29398;45.328;5.558;2023-02-11T06:06:28;1.40;86.10
7738;DHT22;29398;45.328;5.558;2023-02-11T06:07:29;1.40;86.40
7738;DHT22;29398;45.328;5.558;2023-02-11T06:08:31;1.40;86.10
7738;DHT22;29398;45.328;5.558;2023-02-11T06:09:33;1.40;86.20
7738;DHT22;29398;45.328;5.558;2023-02-11T06:10:35;1.30;85.60
7738;DHT22;29398;45.328;5.558;2023-02-11T06:11:38;1.30;85.80
7738;DHT22;29398;45.328;5.558;2023-02-11T06:12:40;1.30;86.20
7738;DHT22;29398;45.328;5.558;2023-02-11T06:13:41;1.30;85.90
7738;DHT22;29398;45.328;5.558;2023-02-11T06:14:43;1.30;86.00
7738;DHT22;29398;45.328;5.558;2023-02-11T06:15:44;1.30;85.90
7738;DHT22;29398;45.328;5.558;2023-02-11T06:16:46;1.30;86.20
7738;DHT22;29398;45.328;5.558;2023-02-11T06:17:47;1.30;85.80
7738;DHT22;29398;45.328;5.558;2023-02-11T06:18:49;1.30;85.40
7738;DHT22;29398;45.328;5.558;2023-02-11T06:19:50;1.30;85.40
7738;DHT22;29398;45.328;5.558;2023-02-11T06:20:52;1.30;85.30
7738;DHT22;29398;45.328;5.558;2023-02-11T06:21:55;1.30;85.00
7738;DHT22;29398;45.328;5.558;2023-02-11T06:22:57;1.30;85.10
7738;DHT22;29398;45.328;5.558;2023-02-11T06:23:58;1.30;84.90
7738;DHT22;29398;45.328;5.558;2023-02-11T06:25:00;1.30;84.90
7738;DHT22;29398;45.328;5.558;2023-02-11T06:26:03;1.40;84.80
7738;DHT22;29398;45.328;5.558;2023-02-11T06:27:06;1.30;84.70
7738;DHT22;29398;45.328;5.558;2023-02-11T06:28:07;1.40;84.80
7738;DHT22;29398;45.328;5.558;2023-02-11T06:29:10;1.30;84.70
7738;DHT22;29398;45.328;5.558;2023-02-11T06:30:13;1.30;84.80
7738;DHT22;29398;45.328;5.558;2023-02-11T06:31:16;1.40;85.00
7738;DHT22;29398;45.328;5.558;2023-02-11T06:32:20;1.40;85.10
7738;DHT22;29398;45.328;5.558;2023-02-11T06:33:22;1.40;84.80
7738;DHT22;29398;45.328;5.558;2023-02-11T06:34:23;1.40;84.90
7738;DHT22;29398;45.328;5.558;2023-02-11T06:35:25;1.30;84.70
7738;DHT22;29398;45.328;5.558;2023-02-11T06:36:26;1.20;85.10
7738;DHT22;29398;45.328;5.558;2023-02-11T06:37:28;1.20;84.90
7738;DHT22;29398;45.328;5.558;2023-02-11T06:38:29;1.20;84.80
7738;DHT22;29398;45.328;5.558;2023-02-11T06:39:32;1.20;85.00
7738;DHT22;29398;45.328;5.558;2023-02-11T06:40:33;1.10;84.70
7738;DHT22;29398;45.328;5.558;2023-02-11T06:41:36;1.10;84.90
7738;DHT22;29398;45.328;5.558;2023-02-11T06:42:37;1.00;84.90
7738;DHT22;29398;45.328;5.558;2023-02-11T06:43:40;1.00;85.00
7738;DHT22;29398;45.328;5.558;2023-02-11T06:44:41;0.90;85.30
7738;DHT22;29398;45.328;5.558;2023-02-11T06:45:44;0.90;85.50
7738;DHT22;29398;45.328;5.558;2023-02-11T06:46:45;0.90;85.00
7738;DHT22;29398;45.328;5.558;2023-02-11T06:47:47;0.90;85.90
7738;DHT22;29398;45.328;5.558;2023-02-11T06:48:51;1.00;86.00
7738;DHT22;29398;45.328;5.558;2023-02-11T06:49:53;1.00;86.00
7738;DHT22;29398;45.328;5.558;2023-02-11T06:50:54;1.00;85.80
7738;DHT22;29398;45.328;5.558;2023-02-11T06:51:56;1.10;85.80
7738;DHT22;29398;45.328;5.558;2023-02-11T06:52:57;1.10;85.70
7738;DHT22;29398;45.328;5.558;2023-02-11T06:54:00;1.10;85.40
7738;DHT22;29398;45.328;5.558;2023-02-11T06:55:01;1.20;85.40
7738;DHT22;29398;45.328;5.558;2023-02-11T06:56:04;1.20;85.30
7738;DHT22;29398;45.328;5.558;2023-02-11T06:57:06;1.20;85.30
7738;DHT22;29398;45.328;5.558;2023-02-11T06:58:08;1.30;85.30
7738;DHT22;29398;45.328;5.558;2023-02-11T06:59:14;1.30;85.10
7738;DHT22;29398;45.328;5.558;2023-02-11T07:00:17;1.30;84.80
7738;DHT22;29398;45.328;5.558;2023-02-11T07:01:18;1.20;84.50